Time;durP1;ratioP1;P1;durP2;ratioP2;P2;SDS_P1;SDS_P2;PMS_P1;PMS_P2;Temp;Humidity;BMP_temperature;BMP_pressure;BME280_temperature;BME280_humidity;BME280_pressure;Samples;Min_cycle;Max_cycle;Signal;HPM_P1;HPM_P2
2022/12/10 00:02:34;;;;;;;0.20;0.20;;;;;;;-4.67;100.00;95522.63;4973796;28;20148;-74
2022/12/10 00:05:20;;;;;;;0.22;0.22;;;;;;;-4.77;100.00;95512.44;4969958;28;20511;-74
2022/12/10 00:08:06;;;;;;;0.43;0.30;;;;;;;-4.60;100.00;95511.28;4971087;28;20046;-73
2022/12/10 00:10:51;;;;;;;0.20;0.20;;;;;;;-4.39;100.00;95508.00;4974180;28;20298;-73
2022/12/10 00:13:38;;;;;;;0.20;0.20;;;;;;;-4.30;100.00;95512.16;4968447;28;20073;-74
2022/12/10 00:16:25;;;;;;;0.20;0.20;;;;;;;-4.00;100.00;95517.38;4959792;28;20050;-74
2022/12/10 00:19:11;;;;;;;0.20;0.20;;;;;;;-3.74;100.00;95509.88;4974619;28;20387;-74
2022/12/10 00:21:57;;;;;;;0.20;0.20;;;;;;;-3.59;100.00;95514.25;4971968;28;20042;-73
2022/12/10 00:24:43;;;;;;;0.20;0.20;;;;;;;-3.55;100.00;95511.13;4972227;28;20065;-74
2022/12/10 00:27:33;;;;;;;0.20;0.20;;;;;;;-3.65;100.00;95510.59;4973671;28;20467;-74
2022/12/10 00:30:19;;;;;;;0.20;0.20;;;;;;;-3.64;100.00;95509.59;4962574;28;20507;-74
2022/12/10 00:33:05;;;;;;;0.20;0.20;;;;;;;-3.63;100.00;95513.03;4961220;28;20039;-74
2022/12/10 00:35:51;;;;;;;0.20;0.20;;;;;;;-3.58;100.00;95506.25;4973656;28;20042;-73
2022/12/10 00:38:39;;;;;;;0.20;0.20;;;;;;;-3.62;100.00;95515.44;4973095;28;20062;-73
2022/12/10 00:41:25;;;;;;;0.20;0.20;;;;;;;-3.52;100.00;95517.78;4973980;28;20053;-74
2022/12/10 00:44:11;;;;;;;0.20;0.20;;;;;;;-3.41;100.00;95517.31;4970479;28;20409;-75
2022/12/10 00:46:57;;;;;;;0.20;0.20;;;;;;;-3.41;100.00;95512.06;4972292;28;20273;-73
2022/12/10 00:49:43;;;;;;;0.20;0.20;;;;;;;-3.37;100.00;95513.31;4972949;28;20604;-74
2022/12/10 00:52:29;;;;;;;0.20;0.20;;;;;;;-3.34;100.00;95517.38;4974064;28;20525;-74
2022/12/10 00:55:17;;;;;;;0.20;0.20;;;;;;;-3.34;100.00;95517.38;4951967;28;20833;-74
2022/12/10 00:58:03;;;;;;;0.10;0.10;;;;;;;-3.27;100.00;95508.59;4966028;28;20141;-74
2022/12/10 01:00:49;;;;;;;0.20;0.20;;;;;;;-3.18;100.00;95517.16;4972724;28;20350;-73
2022/12/10 01:03:37;;;;;;;0.20;0.20;;;;;;;-3.12;100.00;95527.66;4960297;28;20226;-74
2022/12/10 01:06:30;;;;;;;0.15;0.15;;;;;;;-3.14;100.00;95528.84;4966171;28;20366;-73
2022/12/10 01:09:25;;;;;;;0.10;0.10;;;;;;;-3.04;100.00;95531.16;4976207;28;20237;-74
2022/12/10 01:12:13;;;;;;;0.25;0.25;;;;;;;-3.10;100.00;95538.78;4972167;28;20038;-74
2022/12/10 01:14:58;;;;;;;0.20;0.20;;;;;;;-3.02;100.00;95532.63;4976416;28;20068;-74
2022/12/10 01:17:45;;;;;;;0.20;0.20;;;;;;;-2.93;100.00;95528.06;4962663;28;20553;-73
2022/12/10 01:20:35;;;;;;;0.20;0.20;;;;;;;-3.10;100.00;95535.34;4961152;28;20763;-73
2022/12/10 01:23:21;;;;;;;0.20;0.20;;;;;;;-3.28;100.00;95529.72;4974008;28;20054;-73
2022/12/10 01:26:11;;;;;;;0.52;0.30;;;;;;;-3.01;100.00;95534.22;4963152;28;20042;-73
2022/12/10 01:28:58;;;;;;;0.30;0.30;;;;;;;-3.03;100.00;95535.44;4962872;28;20048;-73
2022/12/10 01:31:47;;;;;;;0.28;0.25;;;;;;;-3.18;100.00;95538.91;4973784;28;20906;-74
2022/12/10 01:34:33;;;;;;;0.57;0.40;;;;;;;-3.30;100.00;95545.59;4977557;28;20770;-73
2022/12/10 01:37:19;;;;;;;0.30;0.30;;;;;;;-3.36;100.00;95546.31;4960721;28;20538;-74
2022/12/10 01:40:05;;;;;;;0.22;0.22;;;;;;;-3.50;100.00;95544.53;4966082;28;21369;-73
2022/12/10 01:42:51;;;;;;;0.10;0.10;;;;;;;-3.62;100.00;95546.03;4958745;28;20041;-72
2022/12/10 01:45:37;;;;;;;0.50;0.32;;;;;;;-3.51;100.00;95561.25;4977078;28;20045;-74
2022/12/10 01:48:26;;;;;;;0.20;0.20;;;;;;;-3.61;100.00;95560.72;4972199;28;20292;-74
2022/12/10 01:51:13;;;;;;;0.30;0.30;;;;;;;-3.61;100.00;95555.50;4962063;28;20412;-75
2022/12/10 01:54:00;;;;;;;0.20;0.20;;;;;;;-3.53;100.00;95555.38;4965689;28;20042;-74
2022/12/10 01:56:58;;;;;;;0.30;0.25;;;;;;;-3.26;100.00;95567.00;4973382;28;20046;-75
2022/12/10 01:59:56;;;;;;;0.20;0.20;;;;;;;-3.07;100.00;95566.38;4973074;28;20552;-73
2022/12/10 02:03:00;;;;;;;0.20;0.20;;;;;;;-2.87;100.00;95566.59;4971626;28;20330;-75
2022/12/10 02:06:06;;;;;;;0.20;0.20;;;;;;;-2.76;100.00;95575.75;4974768;28;20085;-75
2022/12/10 02:09:17;;;;;;;0.20;0.20;;;;;;;-2.72;100.00;95563.88;4946292;28;20042;-74
2022/12/10 02:12:16;;;;;;;0.20;0.20;;;;;;;-2.73;100.00;95560.47;4958121;28;20787;-71
2022/12/10 02:15:24;;;;;;;0.20;0.20;;;;;;;-2.71;100.00;95566.34;4975924;28;20046;-74
2022/12/10 02:18:21;;;;;;;0.20;0.20;;;;;;;-2.88;100.00;95565.78;4976644;28;20034;-74
2022/12/10 02:21:20;;;;;;;0.20;0.20;;;;;;;-3.12;100.00;95566.91;4976806;28;20104;-74
2022/12/10 02:24:13;;;;;;;0.20;0.20;;;;;;;-3.01;100.00;95564.84;4959489;28;20046;-74
2022/12/10 02:27:52;;;;;;;0.20;0.20;;;;;;;-3.09;100.00;95555.28;4961685;28;20566;-75
2022/12/10 02:30:42;;;;;;;0.10;0.10;;;;;;;-3.41;100.00;95533.00;4925605;28;20050;-74
2022/12/10 02:33:29;;;;;;;0.20;0.20;;;;;;;-3.74;100.00;95551.69;4974271;28;20045;-74
2022/12/10 02:36:17;;;;;;;0.20;0.20;;;;;;;-3.90;100.00;95544.06;4959459;28;20038;-74
2022/12/10 02:39:07;;;;;;;0.20;0.20;;;;;;;-4.06;100.00;95554.69;4961892;28;20819;-72
2022/12/10 02:42:02;;;;;;;0.10;0.10;;;;;;;-4.09;100.00;95549.84;4950708;28;20526;-74
2022/12/10 02:44:50;;;;;;;0.20;0.20;;;;;;;-4.20;100.00;95545.88;4961403;28;20092;-74
2022/12/10 02:47:41;;;;;;;0.20;0.20;;;;;;;-4.31;100.00;95546.28;4962647;28;20157;-72
2022/12/10 02:50:27;;;;;;;0.20;0.20;;;;;;;-4.41;100.00;95545.75;4965025;28;20574;-74
2022/12/10 02:53:14;;;;;;;0.10;0.10;;;;;;;-4.53;100.00;95547.97;4963252;28;20168;-74
2022/12/10 02:56:12;;;;;;;0.20;0.20;;;;;;;-4.60;100.00;95547.03;4972582;28;20050;-74
2022/12/10 02:59:36;;;;;;;0.20;0.20;;;;;;;-4.65;100.00;95550.19;4964957;28;20046;-73
2022/12/10 03:02:23;;;;;;;0.20;0.20;;;;;;;-4.44;100.00;95552.13;4958291;28;20080;-72
2022/12/10 03:05:22;;;;;;;0.20;0.20;;;;;;;-4.26;100.00;95554.41;4975342;28;20046;-74
2022/12/10 03:08:19;;;;;;;0.20;0.20;;;;;;;-4.14;100.00;95546.94;4974110;28;20069;-73
2022/12/10 03:11:12;;;;;;;0.20;0.20;;;;;;;-4.08;100.00;95552.25;4975757;28;20046;-74
2022/12/10 03:14:03;;;;;;;0.20;0.20;;;;;;;-3.95;100.00;95551.63;4973028;28;20611;-73
2022/12/10 03:16:55;;;;;;;0.20;0.20;;;;;;;-3.90;100.00;95556.31;4974527;28;20447;-74
2022/12/10 03:19:46;;;;;;;0.20;0.20;;;;;;;-3.87;100.00;95554.16;4977001;28;20313;-74
2022/12/10 03:22:33;;;;;;;0.20;0.20;;;;;;;-3.82;100.00;95553.59;4972162;28;20044;-74
2022/12/10 03:25:23;;;;;;;0.20;0.20;;;;;;;-3.66;100.00;95554.25;4973351;28;20648;-73
2022/12/10 03:28:09;;;;;;;0.20;0.20;;;;;;;-3.48;100.00;95550.44;4972059;28;20052;-74
2022/12/10 03:30:57;;;;;;;0.20;0.20;;;;;;;-3.48;100.00;95547.81;4975225;28;20057;-74
2022/12/10 03:33:43;;;;;;;0.20;0.20;;;;;;;-3.54;100.00;95543.31;4974093;28;20052;-75
2022/12/10 03:36:30;;;;;;;0.20;0.20;;;;;;;-3.50;100.00;95544.53;4972789;28;20338;-74
2022/12/10 03:39:16;;;;;;;0.20;0.20;;;;;;;-3.30;100.00;95560.50;4972595;28;20042;-74
2022/12/10 03:42:04;;;;;;;0.20;0.20;;;;;;;-3.15;100.00;95559.44;4974897;28;20320;-74
2022/12/10 03:44:51;;;;;;;0.20;0.20;;;;;;;-3.14;100.00;95555.03;4971946;28;20387;-73
2022/12/10 03:47:37;;;;;;;0.20;0.20;;;;;;;-3.13;100.00;95548.78;4975115;28;20083;-74
2022/12/10 03:50:23;;;;;;;0.20;0.20;;;;;;;-3.27;100.00;95558.31;4961372;28;20084;-74
2022/12/10 03:53:10;;;;;;;0.20;0.20;;;;;;;-3.14;100.00;95560.25;4973534;28;20046;-74
2022/12/10 03:55:56;;;;;;;0.20;0.20;;;;;;;-3.12;100.00;95561.69;4975888;28;20042;-74
2022/12/10 03:58:41;;;;;;;0.20;0.20;;;;;;;-3.17;100.00;95558.84;4976566;28;20085;-73
2022/12/10 04:01:27;;;;;;;0.20;0.20;;;;;;;-3.20;100.00;95553.94;4974170;28;20038;-74
2022/12/10 04:04:13;;;;;;;0.20;0.20;;;;;;;-3.49;100.00;95557.47;4974470;28;20490;-74
2022/12/10 04:06:59;;;;;;;0.20;0.20;;;;;;;-3.57;100.00;95562.81;4973901;28;20057;-74
2022/12/10 04:09:45;;;;;;;0.20;0.20;;;;;;;-3.47;100.00;95562.50;4973308;28;20383;-74
2022/12/10 04:12:31;;;;;;;0.20;0.20;;;;;;;-3.41;100.00;95556.56;4965264;28;20703;-74
2022/12/10 04:18:21;;;;;;;0.20;0.20;;;;;;;-3.62;100.00;95553.88;4971909;28;20046;-73
2022/12/10 04:27:23;;;;;;;0.20;0.20;;;;;;;-3.47;100.00;95545.00;4971649;28;20065;-72
2022/12/10 04:30:12;;;;;;;0.20;0.20;;;;;;;-3.35;100.00;95558.41;4959689;28;20038;-72
2022/12/10 04:32:58;;;;;;;0.20;0.20;;;;;;;-3.54;100.00;95557.19;4968885;28;20128;-73
2022/12/10 04:35:43;;;;;;;0.17;0.17;;;;;;;-3.56;100.00;95566.22;4976854;28;20042;-74
2022/12/10 04:38:29;;;;;;;0.20;0.20;;;;;;;-3.63;100.00;95565.34;4977011;28;20042;-72
2022/12/10 04:41:16;;;;;;;0.20;0.20;;;;;;;-3.56;100.00;95567.03;4975441;28;20402;-74
2022/12/10 04:44:01;;;;;;;0.20;0.20;;;;;;;-3.55;100.00;95560.81;4976209;28;20084;-73
2022/12/10 04:46:48;;;;;;;1.50;0.82;;;;;;;-3.41;100.00;95565.22;4976381;28;20330;-75
2022/12/10 04:49:34;;;;;;;1.05;0.57;;;;;;;-3.24;100.00;95573.66;4975222;28;20046;-75
2022/12/10 04:52:20;;;;;;;1.27;0.65;;;;;;;-3.22;100.00;95560.38;4974976;28;20042;-75
2022/12/10 04:55:07;;;;;;;0.22;0.22;;;;;;;-3.16;100.00;95563.06;4963293;28;20553;-72
2022/12/10 04:57:53;;;;;;;0.90;0.40;;;;;;;-3.11;100.00;95565.97;4963583;28;20042;-71
2022/12/10 05:00:39;;;;;;;1.85;0.95;;;;;;;-3.14;100.00;95568.91;4977904;28;20100;-74
2022/12/10 05:03:25;;;;;;;1.27;0.68;;;;;;;-3.21;100.00;95564.59;4974487;28;20042;-74
2022/12/10 05:06:14;;;;;;;1.83;0.93;;;;;;;-3.17;100.00;95568.50;4976584;28;20592;-74
2022/12/10 05:09:03;;;;;;;1.50;0.68;;;;;;;-3.21;100.00;95565.41;4976588;28;20572;-75
2022/12/10 05:11:52;;;;;;;2.53;1.30;;;;;;;-3.21;100.00;95578.50;4976662;28;20136;-75
2022/12/10 05:14:38;;;;;;;1.90;0.85;;;;;;;-3.20;100.00;95574.06;4974231;28;20050;-74
2022/12/10 05:17:24;;;;;;;0.95;0.50;;;;;;;-3.17;100.00;95569.31;4976288;28;20052;-74
2022/12/10 05:20:10;;;;;;;0.80;0.50;;;;;;;-3.19;100.00;95573.91;4966280;28;20042;-75
2022/12/10 05:26:08;;;;;;;1.80;1.02;;;;;;;-3.20;100.00;95580.13;4976352;28;20046;-75
2022/12/10 05:28:55;;;;;;;0.95;0.52;;;;;;;-3.24;100.00;95571.03;4975723;28;20410;-74
2022/12/10 05:31:41;;;;;;;1.40;0.80;;;;;;;-3.30;100.00;95571.75;4974875;28;20046;-74
2022/12/10 05:34:27;;;;;;;1.80;0.80;;;;;;;-3.31;100.00;95578.00;4974934;28;20157;-75
2022/12/10 05:37:13;;;;;;;2.13;1.02;;;;;;;-3.26;100.00;95577.47;4977438;28;20044;-73
2022/12/10 05:39:59;;;;;;;1.90;1.10;;;;;;;-3.51;100.00;95569.09;4976770;28;20092;-74
2022/12/10 05:42:44;;;;;;;3.00;1.63;;;;;;;-3.60;100.00;95585.88;4974509;28;20552;-75
2022/12/10 05:45:33;;;;;;;1.85;0.95;;;;;;;-3.52;100.00;95578.75;4967344;28;20121;-74
2022/12/10 05:48:19;;;;;;;1.20;0.60;;;;;;;-3.37;100.00;95587.38;4975079;28;20622;-73
2022/12/10 05:51:07;;;;;;;3.00;1.52;;;;;;;-3.34;100.00;95591.47;4963767;28;20467;-73
2022/12/10 05:53:53;;;;;;;1.58;0.80;;;;;;;-3.43;100.00;95582.06;4972469;28;20042;-75
2022/12/10 05:56:39;;;;;;;1.83;0.82;;;;;;;-3.43;100.00;95585.50;4975083;28;20559;-75
2022/12/10 05:59:25;;;;;;;1.73;0.82;;;;;;;-3.50;100.00;95592.47;4975737;28;20088;-74
2022/12/10 06:02:11;;;;;;;1.73;0.85;;;;;;;-3.72;100.00;95602.03;4977698;28;20476;-74
2022/12/10 06:04:57;;;;;;;2.08;1.10;;;;;;;-3.69;100.00;95599.03;4974410;28;20494;-74
2022/12/10 06:07:44;;;;;;;0.90;0.52;;;;;;;-3.66;100.00;95600.47;4972549;28;21379;-74
2022/12/10 06:10:30;;;;;;;0.80;0.45;;;;;;;-3.62;100.00;95603.56;4961914;28;20332;-75
2022/12/10 06:13:16;;;;;;;1.02;0.52;;;;;;;-3.68;100.00;95605.91;4967819;28;20054;-73
2022/12/10 06:16:07;;;;;;;1.83;1.00;;;;;;;-3.67;100.00;95610.13;4964679;28;20054;-75
2022/12/10 06:18:53;;;;;;;2.90;1.20;;;;;;;-3.65;100.00;95618.63;4975414;28;20489;-73
2022/12/10 06:21:41;;;;;;;1.75;0.77;;;;;;;-3.58;100.00;95610.03;4973608;28;20076;-75
2022/12/10 06:24:29;;;;;;;1.80;1.00;;;;;;;-3.59;100.00;95613.66;4974298;28;20042;-75
2022/12/10 06:27:15;;;;;;;1.25;0.60;;;;;;;-3.71;100.00;95601.03;4975813;28;20834;-70
2022/12/10 06:30:01;;;;;;;1.27;0.70;;;;;;;-3.73;100.00;95607.44;4975427;28;20129;-73
2022/12/10 06:32:46;;;;;;;1.45;0.77;;;;;;;-3.76;100.00;95608.59;4973855;28;20115;-75
2022/12/10 06:35:32;;;;;;;0.77;0.43;;;;;;;-3.82;100.00;95616.34;4973490;28;20644;-72
2022/12/10 06:38:18;;;;;;;1.38;0.65;;;;;;;-4.12;100.00;95613.72;4961320;28;20553;-74
2022/12/10 06:41:09;;;;;;;1.10;0.57;;;;;;;-4.29;100.00;95615.66;4975966;28;20050;-73
2022/12/10 06:43:58;;;;;;;1.27;0.60;;;;;;;-4.12;100.00;95615.53;4975575;28;20577;-72
2022/12/10 06:46:44;;;;;;;1.80;0.80;;;;;;;-4.14;100.00;95615.69;4974372;28;20294;-74
2022/12/10 06:49:30;;;;;;;1.30;0.70;;;;;;;-4.31;100.00;95615.03;4961131;28;20052;-73
2022/12/10 06:52:16;;;;;;;1.65;0.73;;;;;;;-4.59;100.00;95632.22;4975089;28;20054;-74
2022/12/10 06:55:02;;;;;;;1.75;0.85;;;;;;;-4.33;100.00;95627.44;4975104;28;20214;-73
2022/12/10 06:57:52;;;;;;;1.55;0.88;;;;;;;-4.32;100.00;95634.31;4972862;28;20212;-74
2022/12/10 07:00:38;;;;;;;1.40;0.68;;;;;;;-4.25;100.00;95635.22;4971074;28;20125;-74
2022/12/10 07:03:24;;;;;;;0.45;0.40;;;;;;;-4.25;100.00;95639.63;4974052;28;20049;-71
2022/12/10 07:06:11;;;;;;;2.03;0.93;;;;;;;-4.33;100.00;95640.50;4976410;28;20065;-73
2022/12/10 07:08:57;;;;;;;1.10;0.50;;;;;;;-4.46;100.00;95650.72;4960076;28;20466;-73
2022/12/10 07:11:43;;;;;;;1.27;0.65;;;;;;;-4.74;100.00;95649.66;4973466;28;20041;-74
2022/12/10 07:14:29;;;;;;;1.85;0.93;;;;;;;-4.80;100.00;95657.19;4972252;28;20427;-75
2022/12/10 07:17:15;;;;;;;1.70;0.90;;;;;;;-5.08;100.00;95656.03;4972644;28;20050;-75
2022/12/10 07:20:02;;;;;;;0.50;0.38;;;;;;;-5.09;100.00;95657.00;4977186;28;20056;-72
2022/12/10 07:22:48;;;;;;;1.20;0.55;;;;;;;-5.37;100.00;95665.31;4974341;28;20073;-75
2022/12/10 07:25:34;;;;;;;0.88;0.50;;;;;;;-5.44;100.00;95658.31;4973950;28;20057;-72
2022/12/10 07:28:22;;;;;;;0.50;0.30;;;;;;;-5.60;100.00;95659.19;4964533;28;20921;-74
2022/12/10 07:31:09;;;;;;;0.20;0.20;;;;;;;-5.70;100.00;95668.97;4968043;28;20058;-75
2022/12/10 07:33:58;;;;;;;0.20;0.20;;;;;;;-5.81;100.00;95675.34;4953507;28;20050;-71
2022/12/10 07:36:44;;;;;;;0.20;0.20;;;;;;;-5.73;100.00;95667.53;4973821;28;20290;-75
2022/12/10 07:39:30;;;;;;;0.20;0.20;;;;;;;-5.72;100.00;95676.97;4974798;28;20038;-74
2022/12/10 07:42:16;;;;;;;0.20;0.20;;;;;;;-5.65;100.00;95664.88;4963406;28;20523;-76
2022/12/10 07:45:03;;;;;;;0.20;0.20;;;;;;;-5.65;100.00;95670.09;4965091;28;20050;-72
2022/12/10 07:47:49;;;;;;;0.20;0.20;;;;;;;-5.64;100.00;95665.69;4973553;28;20473;-74
2022/12/10 07:50:35;;;;;;;0.20;0.20;;;;;;;-5.74;100.00;95672.91;4962894;28;20112;-74
2022/12/10 07:53:21;;;;;;;0.20;0.20;;;;;;;-5.79;100.00;95678.59;4964919;28;20508;-74
2022/12/10 07:56:07;;;;;;;0.20;0.20;;;;;;;-5.61;100.00;95683.59;4975661;28;20881;-74
2022/12/10 07:58:53;;;;;;;0.20;0.20;;;;;;;-5.59;100.00;95671.25;4975254;28;20061;-72
2022/12/10 08:01:43;;;;;;;0.20;0.20;;;;;;;-5.69;100.00;95676.63;4975291;28;20367;-73
2022/12/10 08:04:30;;;;;;;0.20;0.20;;;;;;;-5.70;100.00;95674.19;4974915;28;20502;-74
2022/12/10 08:07:15;;;;;;;0.20;0.20;;;;;;;-5.57;100.00;95679.69;4974030;28;20149;-74
2022/12/10 08:10:02;;;;;;;0.20;0.20;;;;;;;-5.52;100.00;95682.63;4979582;28;20357;-75
2022/12/10 08:12:48;;;;;;;0.20;0.20;;;;;;;-5.48;100.00;95677.88;4976925;28;20545;-74
2022/12/10 08:15:33;;;;;;;0.20;0.20;;;;;;;-5.52;100.00;95677.41;4980008;28;20148;-73
2022/12/10 08:18:21;;;;;;;0.20;0.20;;;;;;;-5.25;100.00;95688.38;4972277;28;20050;-75
2022/12/10 08:21:18;;;;;;;0.20;0.20;;;;;;;-5.18;100.00;95684.94;4981449;28;20162;-74
2022/12/10 08:24:04;;;;;;;0.20;0.20;;;;;;;-5.22;100.00;95680.22;4977872;28;20038;-75
2022/12/10 08:26:50;;;;;;;0.20;0.20;;;;;;;-5.25;100.00;95691.81;4977223;28;20037;-73
2022/12/10 08:29:36;;;;;;;0.20;0.20;;;;;;;-5.15;100.00;95689.00;4981867;28;20038;-74
2022/12/10 08:32:22;;;;;;;0.20;0.20;;;;;;;-5.26;100.00;95699.81;4976472;28;20058;-74
2022/12/10 08:35:08;;;;;;;0.20;0.20;;;;;;;-5.21;100.00;95697.50;4971108;28;20100;-74
2022/12/10 08:37:54;;;;;;;0.20;0.20;;;;;;;-5.39;100.00;95687.28;4962372;28;20336;-73
2022/12/10 08:40:41;;;;;;;0.20;0.20;;;;;;;-5.22;100.00;95698.47;4981934;28;20045;-73
2022/12/10 08:43:27;;;;;;;0.20;0.20;;;;;;;-5.13;100.00;95707.91;4975647;28;20042;-73
2022/12/10 08:46:15;;;;;;;0.20;0.20;;;;;;;-5.02;100.00;95712.75;4976886;28;20038;-75
2022/12/10 08:49:00;;;;;;;0.20;0.20;;;;;;;-4.93;100.00;95719.56;4980610;28;20070;-75
2022/12/10 08:51:46;;;;;;;0.20;0.20;;;;;;;-4.66;100.00;95725.31;4967824;28;20057;-75
2022/12/10 08:54:32;;;;;;;0.20;0.20;;;;;;;-4.48;100.00;95725.84;4978164;28;20050;-74
2022/12/10 08:57:18;;;;;;;0.20;0.20;;;;;;;-4.48;100.00;95728.44;4975286;28;20046;-74
2022/12/10 09:00:05;;;;;;;0.20;0.20;;;;;;;-4.39;100.00;95719.56;4981223;28;20129;-73
2022/12/10 09:02:51;;;;;;;0.20;0.20;;;;;;;-4.17;100.00;95722.38;4963822;28;20104;-74
2022/12/10 09:05:37;;;;;;;0.20;0.20;;;;;;;-3.89;100.00;95717.38;4977086;28;20469;-74
2022/12/10 09:08:23;;;;;;;0.20;0.20;;;;;;;-3.71;100.00;95717.91;4964034;28;20345;-75
2022/12/10 09:11:18;;;;;;;0.30;0.30;;;;;;;-3.21;100.00;95717.19;4978727;28;20901;-74
2022/12/10 09:14:07;;;;;;;0.30;0.30;;;;;;;-2.06;100.00;95727.78;4974252;28;20050;-76
2022/12/10 09:16:53;;;;;;;0.30;0.30;;;;;;;-0.12;100.00;95726.06;4966763;28;20501;-76
2022/12/10 09:19:39;;;;;;;0.30;0.30;;;;;;;1.45;100.00;95715.56;4976020;28;20038;-76
2022/12/10 09:22:25;;;;;;;0.40;0.40;;;;;;;2.77;100.00;95725.25;4976351;28;20437;-76
2022/12/10 09:25:11;;;;;;;0.50;0.40;;;;;;;3.92;98.07;95714.81;4976735;28;20046;-74
2022/12/10 09:27:57;;;;;;;0.30;0.30;;;;;;;4.90;89.20;95710.03;4977463;28;20110;-74
2022/12/10 09:30:43;;;;;;;0.50;0.40;;;;;;;5.74;78.42;95719.25;4977880;28;20049;-75
2022/12/10 09:33:29;;;;;;;0.35;0.35;;;;;;;6.49;68.56;95712.97;4975736;28;20518;-77
2022/12/10 09:36:16;;;;;;;0.32;0.32;;;;;;;7.23;62.44;95707.41;4975334;28;20580;-76
2022/12/10 09:39:02;;;;;;;0.40;0.40;;;;;;;7.62;58.98;95710.06;4977236;28;20054;-76
2022/12/10 09:42:25;;;;;;;0.30;0.30;;;;;;;7.76;55.07;95716.63;4975342;28;20302;-76
2022/12/10 09:45:26;;;;;;;0.30;0.30;;;;;;;8.44;54.55;95704.59;4976948;28;20268;-75
2022/12/10 09:48:12;;;;;;;0.40;0.40;;;;;;;9.07;53.38;95702.16;4976635;28;20053;-76
2022/12/10 09:51:12;;;;;;;0.30;0.30;;;;;;;9.67;49.77;95704.34;4976047;28;20045;-77
2022/12/10 09:53:59;;;;;;;0.30;0.30;;;;;;;9.97;52.29;95694.84;4960382;28;20491;-75
2022/12/10 09:56:45;;;;;;;0.30;0.30;;;;;;;10.71;48.79;95694.47;4951289;28;20172;-76
2022/12/10 09:59:37;;;;;;;0.30;0.30;;;;;;;11.32;46.82;95696.28;4978296;28;20078;-75
2022/12/10 10:02:29;;;;;;;0.30;0.30;;;;;;;11.90;46.91;95697.44;4975213;28;20112;-77
2022/12/10 10:05:17;;;;;;;0.30;0.30;;;;;;;12.33;46.01;95699.66;4972787;28;20038;-76
2022/12/10 10:08:11;;;;;;;0.20;0.20;;;;;;;12.45;47.08;95692.06;4975392;28;20365;-76
2022/12/10 10:11:01;;;;;;;0.30;0.30;;;;;;;12.30;45.66;95698.34;4977447;28;20061;-74
2022/12/10 10:14:13;;;;;;;0.30;0.30;;;;;;;12.48;41.51;95695.00;4974656;28;20052;-77
2022/12/10 10:17:09;;;;;;;0.20;0.20;;;;;;;12.75;44.22;95691.03;4962767;28;20477;-78
2022/12/10 10:19:55;;;;;;;0.20;0.20;;;;;;;10.86;48.24;95689.09;4976731;28;20050;-77
2022/12/10 10:22:42;;;;;;;0.10;0.10;;;;;;;8.69;56.99;95698.66;4975194;28;20065;-76
2022/12/10 10:25:31;;;;;;;0.10;0.10;;;;;;;6.53;77.78;95705.28;4977562;28;20339;-74
2022/12/10 10:28:22;;;;;;;0.15;0.15;;;;;;;4.87;90.97;95711.31;4968742;28;20061;-74
2022/12/10 10:31:22;;;;;;;0.10;0.10;;;;;;;4.01;98.22;95712.66;4976012;28;20042;-75
2022/12/10 10:34:22;;;;;;;0.10;0.10;;;;;;;3.01;100.00;95718.31;4976263;28;20053;-75
2022/12/10 10:37:16;;;;;;;0.10;0.10;;;;;;;2.24;100.00;95714.31;4974187;28;20042;-76
2022/12/10 10:40:03;;;;;;;0.20;0.20;;;;;;;1.57;100.00;95731.56;4905581;28;20563;-75
2022/12/10 10:42:54;;;;;;;0.10;0.10;;;;;;;1.14;100.00;95728.66;4937056;28;20420;-75
2022/12/10 10:45:53;;;;;;;0.10;0.10;;;;;;;0.88;100.00;95734.81;4974306;28;20081;-75
2022/12/10 10:48:40;;;;;;;0.20;0.20;;;;;;;0.65;100.00;95730.78;4867295;28;20109;-75
2022/12/10 10:51:26;;;;;;;0.10;0.10;;;;;;;0.51;100.00;95732.59;4928619;28;20116;-75
2022/12/10 10:54:43;;;;;;;0.10;0.10;;;;;;;0.32;100.00;95745.78;5072439;27;20537;-73
2022/12/10 10:57:36;;;;;;;0.20;0.20;;;;;;;0.04;100.00;95744.13;5022461;28;20170;-75
2022/12/10 11:00:22;;;;;;;0.10;0.10;;;;;;;-0.26;100.00;95751.53;5032929;28;20591;-75
2022/12/10 11:03:08;;;;;;;0.13;0.13;;;;;;;-0.48;100.00;95737.69;5039796;28;20127;-74
2022/12/10 11:05:57;;;;;;;0.10;0.10;;;;;;;-0.58;100.00;95737.25;5051245;28;20514;-74
2022/12/10 11:08:46;;;;;;;0.20;0.20;;;;;;;-0.59;100.00;95749.59;5048641;28;20320;-73
2022/12/10 11:11:36;;;;;;;0.20;0.20;;;;;;;-0.48;100.00;95748.22;5051883;28;20047;-73
2022/12/10 11:14:32;;;;;;;0.20;0.20;;;;;;;-0.42;100.00;95749.25;5049441;28;20063;-74
2022/12/10 11:17:21;;;;;;;0.20;0.20;;;;;;;-0.57;100.00;95726.53;5049504;28;20059;-74
2022/12/10 11:20:19;;;;;;;0.17;0.17;;;;;;;-0.68;100.00;95736.81;5050501;28;20106;-75
2022/12/10 11:23:11;;;;;;;0.10;0.10;;;;;;;-0.73;100.00;95733.97;5048458;28;20537;-74
2022/12/10 11:26:36;;;;;;;0.10;0.10;;;;;;;-0.80;100.00;95739.19;5055482;28;20044;-75
2022/12/10 11:29:53;;;;;;;0.10;0.10;;;;;;;-0.64;100.00;95738.84;5052048;28;20044;-73
2022/12/10 11:32:46;;;;;;;0.20;0.20;;;;;;;-0.65;100.00;95741.69;5049847;28;20520;-74
2022/12/10 11:35:50;;;;;;;0.20;0.20;;;;;;;-0.62;100.00;95738.69;5051353;28;20584;-74
2022/12/10 11:38:59;;;;;;;0.20;0.20;;;;;;;-0.75;100.00;95741.25;5050241;28;20328;-73
2022/12/10 11:42:10;;;;;;;0.10;0.10;;;;;;;-0.67;100.00;95741.88;5052402;28;20127;-73
2022/12/10 11:45:07;;;;;;;0.20;0.20;;;;;;;-0.67;100.00;95736.63;5047903;28;20066;-76
2022/12/10 11:48:11;;;;;;;0.20;0.20;;;;;;;-0.70;100.00;95741.44;5050443;28;20040;-74
2022/12/10 11:51:08;;;;;;;0.20;0.20;;;;;;;-0.76;100.00;95750.94;5047347;28;20045;-75
2022/12/10 11:54:23;;;;;;;0.20;0.20;;;;;;;-0.89;100.00;95749.03;5065047;28;20059;-76
2022/12/10 11:57:16;;;;;;;0.20;0.20;;;;;;;-0.89;100.00;95751.66;5070341;28;20040;-73
2022/12/10 12:00:17;;;;;;;0.20;0.20;;;;;;;-1.08;100.00;95752.38;5068682;28;20044;-76
2022/12/10 12:03:22;;;;;;;0.20;0.20;;;;;;;-1.12;100.00;95759.81;5055858;28;20086;-75
2022/12/10 12:06:36;;;;;;;0.20;0.20;;;;;;;-1.10;100.00;95762.25;5047559;28;20138;-75
2022/12/10 12:09:44;;;;;;;0.20;0.20;;;;;;;-1.26;100.00;95755.47;5055000;28;20055;-75
2022/12/10 12:12:58;;;;;;;0.10;0.10;;;;;;;-1.29;100.00;95755.88;5053602;28;20036;-76
2022/12/10 12:16:15;;;;;;;0.20;0.20;;;;;;;-1.39;100.00;95765.09;5054773;28;20028;-74
2022/12/10 12:19:11;;;;;;;0.20;0.20;;;;;;;-1.49;100.00;95750.47;5054379;28;20582;-75
2022/12/10 12:22:02;;;;;;;0.10;0.10;;;;;;;-1.65;100.00;95753.38;5037774;28;20043;-74
2022/12/10 12:24:51;;;;;;;0.15;0.15;;;;;;;-1.58;100.00;95766.53;5055474;28;20458;-76
2022/12/10 12:27:37;;;;;;;0.20;0.20;;;;;;;-1.78;100.00;95769.81;5054756;28;20044;-74
2022/12/10 12:30:23;;;;;;;0.20;0.20;;;;;;;-1.54;100.00;95752.88;5056154;28;20043;-74
2022/12/10 12:33:35;;;;;;;0.20;0.20;;;;;;;-1.46;100.00;95757.97;5054597;28;20342;-74
2022/12/10 12:36:24;;;;;;;;;;;;;;;-1.31;100.00;95759.69;5056204;28;20059;-75
2022/12/10 12:39:28;;;;;;;0.20;0.20;;;;;;;-1.42;100.00;95753.16;5056357;28;19916;-75
2022/12/10 12:42:38;;;;;;;0.20;0.20;;;;;;;-1.39;100.00;95763.28;5053404;28;20559;-75
2022/12/10 12:45:36;;;;;;;0.20;0.20;;;;;;;-1.47;100.00;95763.41;5056421;28;20582;-73
2022/12/10 12:48:38;;;;;;;0.20;0.20;;;;;;;-1.49;100.00;95762.78;5055382;28;20109;-75
2022/12/10 12:51:42;;;;;;;0.20;0.20;;;;;;;-1.50;100.00;95763.78;5053777;28;20568;-73
2022/12/10 12:54:28;;;;;;;0.10;0.10;;;;;;;-2.09;100.00;95772.75;5053730;28;20036;-75
2022/12/10 12:57:46;;;;;;;0.20;0.20;;;;;;;-1.89;100.00;95764.25;5041788;28;20040;-76
2022/12/10 13:00:35;;;;;;;0.20;0.20;;;;;;;-1.90;100.00;95775.75;5047463;28;20288;-73
2022/12/10 13:03:29;;;;;;;0.20;0.20;;;;;;;-1.92;100.00;95772.50;5053168;28;20051;-73
2022/12/10 13:06:25;;;;;;;0.10;0.10;;;;;;;-2.05;100.00;95781.84;5053740;28;21058;-75
2022/12/10 13:09:26;;;;;;;0.20;0.20;;;;;;;-2.13;100.00;95778.53;5040432;28;20048;-75
2022/12/10 13:12:16;;;;;;;0.20;0.20;;;;;;;-2.22;100.00;95780.47;5040126;28;20051;-74
2022/12/10 13:15:18;;;;;;;0.35;0.30;;;;;;;-2.22;100.00;95777.84;5041881;28;20056;-76
2022/12/10 13:18:21;;;;;;;0.35;0.28;;;;;;;-2.23;100.00;95781.47;5053959;28;20032;-73
2022/12/10 13:21:16;;;;;;;0.20;0.20;;;;;;;-2.15;100.00;95785.78;5036562;28;20353;-75
2022/12/10 13:24:14;;;;;;;0.20;0.20;;;;;;;-2.28;100.00;95778.59;5051839;28;20457;-75
2022/12/10 13:27:38;;;;;;;0.20;0.20;;;;;;;-2.27;100.00;95788.06;5052605;28;20035;-74
2022/12/10 13:30:27;;;;;;;0.30;0.20;;;;;;;-2.31;100.00;95792.06;4970404;28;20080;-75